Marianne — VRFM5 — position and weather

sailwx.info

Track history (hours):
 
Tides and Currents Weather Stations Pressure Air Temp Water Temp Dewpoint Dewpoint Depression Visibility Wind Speed Wind Dir Waves Ship Positions

Marianne

Last reported at 2015-Jul-29 13:24 UTC. Time now 2015-Jul-29 15:56 UTC.
Position N 59°20' E 022°05'.

Length 97 m; draft 5.5 m.

Type: Ship (hazmat cat B). MMSI: 477560836.

Date/timePositionNaut miles runAvg speedWind from/ knotsBaromVisibWave heightAir tempDewpointWater temp
2015-Jul-29 13:24N 59°20' E 022°05'1113.3
2015-Jul-29 12:33N 59°27' E 022°22'1313.3
2015-Jul-29 11:33N 59°33' E 022°45'1413.5
2015-Jul-29 10:32N 59°37' E 023°11'1312.9
2015-Jul-29 09:33N 59°40' E 023°36'1413.6
2015-Jul-29 08:33N 59°44' E 024°02'1713.5
2015-Jul-29 07:19N 59°48' E 024°33'1113.6
2015-Jul-29 06:30N 59°50' E 024°55'2412.4
2015-Jul-29 04:32N 60°04' E 025°35'  
2015-Jul-21 03:23N 60°17' E 025°33'44 1.3
2015-Jul-19 16:34N 59°44' E 024°33'2512.0
2015-Jul-19 14:31N 59°37' E 023°47'1212.4
2015-Jul-19 13:33N 59°34' E 023°24'  
Track history (hours):
 
Tides and Currents Weather Stations Pressure Air Temp Water Temp Dewpoint Dewpoint Depression Visibility Wind Speed Wind Dir Waves Ship Positions

Marianne

Last reported at 2015-Jul-29 13:24 UTC. Time now 2015-Jul-29 15:56 UTC.
Position N 59°20' E 022°05'.

Length 97 m; draft 5.5 m.

Type: Ship (hazmat cat B). MMSI: 477560836.

Date/timePositionNaut miles runAvg speedWind from/ knotsBaromVisibWave heightAir tempDewpointWater temp
2015-Jul-29 13:24N 59°20' E 022°05'1113.3
2015-Jul-29 12:33N 59°27' E 022°22'1313.3
2015-Jul-29 11:33N 59°33' E 022°45'1413.5
2015-Jul-29 10:32N 59°37' E 023°11'1312.9
2015-Jul-29 09:33N 59°40' E 023°36'1413.6
2015-Jul-29 08:33N 59°44' E 024°02'1713.5
2015-Jul-29 07:19N 59°48' E 024°33'1113.6
2015-Jul-29 06:30N 59°50' E 024°55'2412.4
2015-Jul-29 04:32N 60°04' E 025°35'  
2015-Jul-21 03:23N 60°17' E 025°33'44 1.3
2015-Jul-19 16:34N 59°44' E 024°33'2512.0
2015-Jul-19 14:31N 59°37' E 023°47'1212.4
2015-Jul-19 13:33N 59°34' E 023°24'  

Dump ship's entire track history